Time;durP1;ratioP1;P1;durP2;ratioP2;P2;SDS_P1;SDS_P2;PMS_P1;PMS_P2;Temp;Humidity;BMP_temperature;BMP_pressure;BME280_temperature;BME280_humidity;BME280_pressure;Samples;Min_cycle;Max_cycle;Signal;HPM_P1;HPM_P2
2022/04/01 00:02:19;;;;;;;4.57;1.67;;;3.80;52.10;;;;;;5063907;28;20292;-67
2022/04/01 00:04:46;;;;;;;2.73;1.80;;;3.80;52.20;;;;;;5068101;28;20321;-66
2022/04/01 00:07:13;;;;;;;2.00;1.43;;;3.80;52.40;;;;;;5058713;28;20209;-66
2022/04/01 00:09:40;;;;;;;4.83;1.80;;;3.70;52.40;;;;;;5058325;28;20221;-66
2022/04/01 00:12:10;;;;;;;2.07;1.43;;;3.70;52.50;;;;;;5062793;28;20236;-66
2022/04/01 00:14:38;;;;;;;3.87;1.60;;;3.70;52.70;;;;;;5073844;28;20284;-66
2022/04/01 00:17:05;;;;;;;3.03;1.40;;;3.70;52.80;;;;;;5072674;28;20243;-66
2022/04/01 00:19:32;;;;;;;2.80;1.40;;;3.70;52.90;;;;;;5072143;28;20211;-66
2022/04/01 00:22:00;;;;;;;2.33;1.70;;;3.70;53.00;;;;;;5067529;28;20231;-67
2022/04/01 00:24:27;;;;;;;1.50;1.33;;;3.70;53.20;;;;;;5069548;28;20639;-65
2022/04/01 00:26:54;;;;;;;1.80;1.37;;;3.70;53.20;;;;;;5073260;28;20205;-66
2022/04/01 00:29:22;;;;;;;2.33;1.57;;;3.70;53.30;;;;;;5072297;28;20248;-65
2022/04/01 00:31:58;;;;;;;2.80;1.83;;;3.70;53.30;;;;;;5058367;28;20293;-66
2022/04/01 00:34:26;;;;;;;1.40;1.30;;;3.60;53.30;;;;;;5063341;28;20295;-66
2022/04/01 00:36:53;;;;;;;1.67;1.33;;;3.60;53.40;;;;;;5062849;28;20220;-66
2022/04/01 00:39:21;;;;;;;3.17;1.90;;;3.60;53.30;;;;;;5063535;28;20329;-66
2022/04/01 00:41:49;;;;;;;3.43;1.60;;;3.60;53.40;;;;;;5069039;28;20270;-66
2022/04/01 00:44:18;;;;;;;2.23;1.60;;;3.60;53.40;;;;;;5071247;28;20312;-66
2022/04/01 00:46:49;;;;;;;2.57;1.50;;;3.60;54.00;;;;;;5072909;28;20239;-66
2022/04/01 00:49:17;;;;;;;2.03;1.63;;;3.60;53.50;;;;;;5067850;28;20205;-66
2022/04/01 00:51:45;;;;;;;3.97;1.63;;;3.60;53.40;;;;;;5066466;28;20212;-66
2022/04/01 00:54:12;;;;;;;1.87;1.60;;;3.60;53.40;;;;;;5071345;28;20201;-65
2022/04/01 00:56:40;;;;;;;4.63;2.23;;;3.60;53.20;;;;;;5063680;28;20210;-66
2022/04/01 00:59:08;;;;;;;1.80;1.50;;;3.60;53.20;;;;;;5058337;28;20209;-66
2022/04/01 01:01:37;;;;;;;2.07;1.80;;;3.60;53.10;;;;;;5064689;28;20216;-69
2022/04/01 01:04:07;;;;;;;2.03;1.70;;;3.60;53.20;;;;;;5071695;28;20654;-69
2022/04/01 01:06:37;;;;;;;3.63;1.73;;;3.60;53.20;;;;;;5061303;28;20316;-69
2022/04/01 01:09:04;;;;;;;2.17;1.53;;;3.60;53.20;;;;;;5066341;28;20209;-69
2022/04/01 01:11:31;;;;;;;2.37;1.87;;;3.50;53.10;;;;;;5064897;28;20647;-70
2022/04/01 01:13:59;;;;;;;2.57;1.83;;;3.50;53.10;;;;;;5065140;28;20205;-69
2022/04/01 01:16:26;;;;;;;6.50;1.70;;;3.50;53.70;;;;;;5064441;28;20205;-69
2022/04/01 01:19:00;;;;;;;3.43;2.10;;;3.50;53.20;;;;;;5071968;28;20209;-69
2022/04/01 01:21:30;;;;;;;4.30;2.13;;;3.50;53.10;;;;;;5063603;28;20228;-69
2022/04/01 01:24:03;;;;;;;2.53;1.70;;;3.50;53.70;;;;;;5068799;28;20633;-69
2022/04/01 01:26:32;;;;;;;1.97;1.60;;;3.50;53.10;;;;;;5064060;28;20694;-69
2022/04/01 01:28:59;;;;;;;2.63;1.70;;;3.50;53.20;;;;;;5072397;28;20288;-69
2022/04/01 01:31:27;;;;;;;2.93;2.10;;;3.50;53.20;;;;;;5070035;28;20642;-69
2022/04/01 01:33:55;;;;;;;2.47;1.70;;;3.50;53.20;;;;;;5061887;28;20245;-69
2022/04/01 01:36:23;;;;;;;3.70;2.33;;;3.40;53.30;;;;;;5064728;28;20202;-69
2022/04/01 01:38:50;;;;;;;2.57;1.80;;;3.50;53.40;;;;;;5070263;28;20300;-69
2022/04/01 01:41:17;;;;;;;3.90;2.17;;;3.40;53.30;;;;;;5075165;28;20209;-69
2022/04/01 01:43:45;;;;;;;2.77;1.87;;;3.50;53.50;;;;;;5063223;28;20205;-69
2022/04/01 01:46:12;;;;;;;2.03;1.80;;;3.40;53.50;;;;;;5070719;28;20241;-68
2022/04/01 01:48:39;;;;;;;1.97;1.47;;;3.40;53.60;;;;;;5076880;28;20292;-68
2022/04/01 01:56:34;;;;;;;2.50;1.63;;;3.40;54.10;;;;;;5075547;28;20242;-69
2022/04/01 01:59:04;;;;;;;2.03;1.50;;;3.40;54.30;;;;;;5060875;28;20209;-69
2022/04/01 02:01:31;;;;;;;2.00;1.70;;;3.30;54.30;;;;;;5067823;28;20238;-68
2022/04/01 02:04:00;;;;;;;2.87;1.70;;;3.40;54.70;;;;;;5067124;28;20232;-68
2022/04/01 02:06:27;;;;;;;4.33;2.07;;;3.30;55.00;;;;;;5076070;28;20229;-68
2022/04/01 02:08:54;;;;;;;1.87;1.70;;;3.30;55.00;;;;;;5075856;28;20237;-69
2022/04/01 02:11:21;;;;;;;2.00;1.60;;;3.10;55.30;;;;;;5066317;28;20240;-70
2022/04/01 02:13:48;;;;;;;2.00;1.47;;;3.20;55.70;;;;;;5075361;28;20292;-68
2022/04/01 02:16:16;;;;;;;2.47;1.40;;;3.20;55.80;;;;;;5076247;28;20534;-70
2022/04/01 02:18:44;;;;;;;5.03;2.10;;;3.10;56.10;;;;;;5074295;28;20206;-68
2022/04/01 02:21:11;;;;;;;3.57;1.70;;;3.10;56.50;;;;;;5057022;28;20793;-69
2022/04/01 02:23:40;;;;;;;2.40;1.70;;;3.00;56.60;;;;;;5068102;28;20295;-69
2022/04/01 02:26:08;;;;;;;1.87;1.50;;;3.00;56.80;;;;;;5076038;28;20630;-69
2022/04/01 02:28:35;;;;;;;2.40;1.83;;;3.00;57.10;;;;;;5076312;28;20205;-69
2022/04/01 02:31:03;;;;;;;2.27;1.70;;;3.00;57.80;;;;;;5075595;28;20240;-69
2022/04/01 02:33:32;;;;;;;2.20;1.77;;;3.00;57.20;;;;;;5073322;28;20223;-68
2022/04/01 02:36:02;;;;;;;2.33;1.70;;;3.00;57.30;;;;;;5069774;28;20208;-69
2022/04/01 02:38:30;;;;;;;2.80;1.80;;;2.90;57.20;;;;;;5075853;28;20210;-69
2022/04/01 02:40:58;;;;;;;3.33;2.07;;;2.90;57.40;;;;;;5073808;28;20205;-68
2022/04/01 02:43:26;;;;;;;2.93;1.80;;;3.00;57.70;;;;;;5072315;28;20296;-69
2022/04/01 02:45:53;;;;;;;2.03;1.77;;;2.90;57.70;;;;;;5070454;28;20236;-69
2022/04/01 02:48:21;;;;;;;2.17;1.73;;;3.00;57.90;;;;;;5074913;28;20201;-70
2022/04/01 02:50:49;;;;;;;3.87;1.60;;;2.90;58.30;;;;;;5064082;28;20259;-69
2022/04/01 02:53:17;;;;;;;2.40;1.97;;;2.90;58.80;;;;;;5069286;28;20650;-69
2022/04/01 02:55:44;;;;;;;2.10;2.00;;;2.80;58.80;;;;;;5061093;28;20205;-69
2022/04/01 02:58:12;;;;;;;3.53;2.00;;;2.90;58.90;;;;;;5063402;28;20305;-68
2022/04/01 03:00:39;;;;;;;5.87;1.80;;;2.80;59.10;;;;;;5070956;28;20206;-68
2022/04/01 03:03:08;;;;;;;3.03;1.90;;;2.80;59.20;;;;;;5073919;28;20201;-69
2022/04/01 03:05:36;;;;;;;5.50;2.13;;;2.80;59.20;;;;;;5063968;28;20208;-69
2022/04/01 03:08:06;;;;;;;2.00;1.60;;;2.80;59.20;;;;;;5073324;28;20216;-68
2022/04/01 03:10:33;;;;;;;3.20;1.83;;;2.70;59.10;;;;;;5069821;28;20307;-69
2022/04/01 03:13:00;;;;;;;2.03;1.63;;;2.70;59.80;;;;;;5071158;28;20305;-69
2022/04/01 03:15:28;;;;;;;3.77;2.10;;;2.70;59.40;;;;;;5071091;28;20205;-68
2022/04/01 03:17:55;;;;;;;4.50;2.10;;;2.70;59.70;;;;;;5067993;28;20208;-69
2022/04/01 03:20:23;;;;;;;5.43;2.00;;;2.70;60.40;;;;;;5071450;28;20308;-69
2022/04/01 03:22:50;;;;;;;5.33;1.97;;;2.60;60.70;;;;;;5062048;28;20220;-69
2022/04/01 03:25:20;;;;;;;2.00;1.80;;;2.60;61.10;;;;;;5071108;28;20309;-68
2022/04/01 03:27:48;;;;;;;5.63;2.27;;;2.60;61.60;;;;;;5072717;28;20567;-70
2022/04/01 03:30:16;;;;;;;2.50;1.90;;;2.50;62.00;;;;;;5074540;28;20202;-69
2022/04/01 03:32:45;;;;;;;3.43;2.17;;;2.50;62.40;;;;;;5073661;28;20235;-68
2022/04/01 03:35:15;;;;;;;3.53;2.30;;;2.40;62.70;;;;;;5066614;28;20216;-69
2022/04/01 03:37:42;;;;;;;4.40;2.47;;;2.40;63.20;;;;;;5056735;28;20206;-69
2022/04/01 03:40:11;;;;;;;2.47;1.87;;;2.40;63.20;;;;;;5065353;28;20211;-69
2022/04/01 03:42:39;;;;;;;3.40;2.10;;;2.40;63.60;;;;;;5072882;28;20225;-69
2022/04/01 03:45:07;;;;;;;2.80;2.27;;;2.40;63.90;;;;;;5068851;28;20265;-69
2022/04/01 03:47:39;;;;;;;3.57;2.23;;;2.40;64.20;;;;;;5071695;28;20233;-68
2022/04/01 03:50:09;;;;;;;3.70;2.37;;;2.30;64.10;;;;;;5064118;28;20678;-69
2022/04/01 03:52:36;;;;;;;3.97;2.10;;;2.30;64.30;;;;;;5062923;28;20678;-68
2022/04/01 03:55:05;;;;;;;2.97;1.87;;;2.30;64.50;;;;;;5066210;28;20208;-68
2022/04/01 03:57:35;;;;;;;3.33;2.40;;;2.30;64.70;;;;;;5074042;28;20263;-68
2022/04/01 04:00:05;;;;;;;2.37;2.17;;;2.30;64.80;;;;;;5071527;28;20205;-69
2022/04/01 04:02:34;;;;;;;4.03;2.60;;;2.30;65.00;;;;;;5069399;28;20288;-68
2022/04/01 04:05:01;;;;;;;3.47;2.67;;;2.30;65.10;;;;;;5070293;28;20308;-68
2022/04/01 04:07:28;;;;;;;2.47;2.07;;;2.30;64.90;;;;;;5072082;28;20239;-68
2022/04/01 04:09:55;;;;;;;3.00;2.03;;;2.30;64.90;;;;;;5071750;28;20612;-68
2022/04/01 04:12:22;;;;;;;2.27;1.90;;;2.30;65.30;;;;;;5055128;28;20230;-68
2022/04/01 04:14:53;;;;;;;2.33;1.70;;;2.30;65.60;;;;;;5054499;28;20202;-68
2022/04/01 04:17:30;;;;;;;2.83;1.90;;;2.40;66.10;;;;;;5067067;28;20227;-69
2022/04/01 04:20:03;;;;;;;3.50;2.10;;;2.20;66.20;;;;;;5062603;28;20652;-68
2022/04/01 04:22:35;;;;;;;3.63;2.00;;;2.20;66.60;;;;;;5069950;28;20232;-69
2022/04/01 04:25:10;;;;;;;4.80;1.90;;;2.20;67.30;;;;;;5072349;28;20228;-69
2022/04/01 04:27:41;;;;;;;3.07;2.00;;;2.20;68.10;;;;;;5057062;28;20236;-70
2022/04/01 04:30:09;;;;;;;2.50;1.70;;;2.20;68.10;;;;;;5072537;28;20648;-68
2022/04/01 04:32:41;;;;;;;3.00;1.67;;;2.10;69.00;;;;;;5061950;28;20241;-68
2022/04/01 04:35:12;;;;;;;2.33;1.87;;;2.10;69.70;;;;;;5065792;28;20201;-69
2022/04/01 04:37:44;;;;;;;5.23;1.83;;;2.10;70.10;;;;;;5066346;28;20201;-69
2022/04/01 04:40:13;;;;;;;3.83;1.73;;;2.00;70.40;;;;;;5053264;28;20611;-67
2022/04/01 04:42:45;;;;;;;3.57;1.77;;;2.00;70.50;;;;;;5063320;28;20213;-69
2022/04/01 04:45:13;;;;;;;5.23;1.77;;;2.10;70.00;;;;;;5069527;28;20240;-69
2022/04/01 04:47:43;;;;;;;2.07;1.63;;;2.00;69.60;;;;;;5065710;28;20320;-69
2022/04/01 04:50:10;;;;;;;1.93;1.43;;;2.00;69.50;;;;;;5070268;28;20205;-69
2022/04/01 04:52:40;;;;;;;7.07;1.73;;;2.00;69.60;;;;;;5065611;28;20613;-70
2022/04/01 04:55:09;;;;;;;1.50;1.40;;;2.00;69.50;;;;;;5069503;28;20231;-69
2022/04/01 04:57:39;;;;;;;1.83;1.57;;;2.00;69.70;;;;;;5068025;28;20232;-70
2022/04/01 05:00:07;;;;;;;4.10;1.50;;;1.90;69.90;;;;;;5066645;28;20217;-69
2022/04/01 05:02:48;;;;;;;2.27;1.53;;;2.00;70.40;;;;;;5059155;28;20209;-69
2022/04/01 05:05:26;;;;;;;6.63;1.33;;;1.90;70.40;;;;;;5073550;28;20209;-68
2022/04/01 05:08:07;;;;;;;2.57;1.70;;;2.00;70.90;;;;;;5065407;28;20633;-69
2022/04/01 05:10:41;;;;;;;2.33;1.47;;;2.00;71.30;;;;;;5072293;28;20201;-69
2022/04/01 05:13:15;;;;;;;3.10;1.60;;;1.90;72.00;;;;;;5075769;28;20549;-69
2022/04/01 05:15:42;;;;;;;1.60;1.30;;;1.90;72.60;;;;;;5072181;28;20210;-69
2022/04/01 05:18:12;;;;;;;2.33;1.83;;;1.80;73.30;;;;;;5068236;28;20296;-70
2022/04/01 05:20:48;;;;;;;5.33;1.80;;;1.80;74.30;;;;;;5076546;28;20239;-69
2022/04/01 05:23:21;;;;;;;2.90;2.13;;;1.80;74.90;;;;;;5066074;28;20197;-69
2022/04/01 05:25:55;;;;;;;3.40;2.13;;;1.80;76.40;;;;;;5078440;28;20233;-71
2022/04/01 05:28:25;;;;;;;2.00;1.60;;;1.70;76.50;;;;;;5076272;28;20623;-68
2022/04/01 05:31:04;;;;;;;3.67;1.90;;;1.80;76.80;;;;;;5074137;28;20206;-70
2022/04/01 05:33:41;;;;;;;3.70;1.50;;;1.70;77.50;;;;;;5067189;28;20201;-69
2022/04/01 05:36:11;;;;;;;2.30;1.77;;;1.70;77.70;;;;;;5075951;28;20228;-70
2022/04/01 05:38:40;;;;;;;2.27;1.77;;;1.60;78.50;;;;;;5057995;28;20292;-69
2022/04/01 05:41:07;;;;;;;4.27;1.37;;;1.60;79.40;;;;;;5058940;28;20240;-68
2022/04/01 05:43:34;;;;;;;4.43;1.93;;;1.60;80.70;;;;;;5075982;28;20236;-69
2022/04/01 05:46:04;;;;;;;3.07;1.43;;;1.50;81.60;;;;;;5069997;28;20286;-68
2022/04/01 05:48:33;;;;;;;2.83;1.70;;;1.40;82.70;;;;;;5071635;28;20263;-70
2022/04/01 05:51:04;;;;;;;3.73;1.73;;;1.40;84.30;;;;;;5057264;28;20238;-69
2022/04/01 05:53:34;;;;;;;2.83;1.60;;;1.30;85.60;;;;;;5076168;28;20202;-68
2022/04/01 05:56:03;;;;;;;1.80;1.63;;;1.30;87.10;;;;;;5065158;28;20226;-69
2022/04/01 05:58:30;;;;;;;6.43;2.00;;;1.40;89.20;;;;;;5066297;28;20194;-68
2022/04/01 06:01:08;;;;;;;2.57;1.90;;;1.30;90.50;;;;;;5067001;28;20240;-70
2022/04/01 06:04:13;;;;;;;2.10;1.63;;;1.30;91.50;;;;;;5069444;28;20203;-70
2022/04/01 06:06:42;;;;;;;3.13;1.70;;;1.30;92.60;;;;;;5071543;28;20267;-69
2022/04/01 06:09:27;;;;;;;3.87;1.80;;;1.30;93.20;;;;;;5070147;28;20237;-69
2022/04/01 06:12:02;;;;;;;3.57;1.67;;;1.30;93.80;;;;;;5068588;28;20201;-69
2022/04/01 06:14:39;;;;;;;2.70;1.60;;;1.30;94.40;;;;;;5067937;28;20201;-69
2022/04/01 06:17:12;;;;;;;4.03;2.00;;;1.40;95.00;;;;;;5071075;28;20193;-69
2022/04/01 06:19:44;;;;;;;4.13;2.00;;;1.40;95.40;;;;;;5064308;28;20202;-70
2022/04/01 06:22:15;;;;;;;1.87;1.37;;;1.40;95.50;;;;;;5071016;28;20724;-69
2022/04/01 06:24:56;;;;;;;5.63;1.80;;;1.50;95.50;;;;;;5068170;28;20659;-70
2022/04/01 06:27:30;;;;;;;2.10;1.30;;;1.50;95.20;;;;;;5072418;28;20216;-68
2022/04/01 06:30:05;;;;;;;2.90;1.70;;;1.60;94.60;;;;;;5067865;28;20197;-68
2022/04/01 06:32:38;;;;;;;3.47;1.90;;;1.60;94.30;;;;;;5058201;28;20201;-69
2022/04/01 06:35:09;;;;;;;5.57;1.47;;;1.70;93.70;;;;;;5057168;28;20568;-70
2022/04/01 06:37:42;;;;;;;1.90;1.70;;;1.70;92.80;;;;;;5067246;28;20210;-69
2022/04/01 06:40:14;;;;;;;3.87;1.90;;;1.70;92.30;;;;;;5070931;28;20224;-70
2022/04/01 06:42:45;;;;;;;3.63;2.10;;;1.80;91.90;;;;;;5075727;28;20286;-69
2022/04/01 06:45:13;;;;;;;7.93;1.83;;;1.80;91.50;;;;;;5073861;28;20271;-69
2022/04/01 06:47:40;;;;;;;7.83;1.63;;;2.10;91.20;;;;;;5067730;28;20622;-69
2022/04/01 06:50:09;;;;;;;7.50;1.57;;;2.00;90.80;;;;;;5069851;28;20229;-70
2022/04/01 06:52:37;;;;;;;3.37;1.73;;;2.10;90.60;;;;;;5069952;28;20207;-70
2022/04/01 06:55:06;;;;;;;4.23;1.37;;;2.10;90.40;;;;;;5067871;28;20219;-70
2022/04/01 06:57:35;;;;;;;5.03;1.60;;;2.10;90.50;;;;;;5068555;28;20206;-69
2022/04/01 07:00:02;;;;;;;1.60;1.50;;;2.20;90.30;;;;;;5063122;28;20231;-69
2022/04/01 07:02:29;;;;;;;4.57;1.80;;;2.20;90.00;;;;;;5068029;28;20646;-69
2022/04/01 07:04:56;;;;;;;2.80;1.50;;;2.20;90.40;;;;;;5073755;28;20209;-69
2022/04/01 07:07:23;;;;;;;5.27;1.90;;;2.10;90.00;;;;;;5072194;28;20225;-69
2022/04/01 07:09:50;;;;;;;3.23;1.97;;;2.10;89.90;;;;;;5061706;28;20232;-69
2022/04/01 07:12:19;;;;;;;3.80;1.80;;;2.10;90.00;;;;;;5071015;28;20202;-68
2022/04/01 07:14:47;;;;;;;1.60;1.50;;;2.10;90.20;;;;;;5055648;28;20651;-69
2022/04/01 07:17:14;;;;;;;2.73;1.43;;;2.10;90.50;;;;;;5068324;28;20549;-68
2022/04/01 07:19:41;;;;;;;2.97;1.80;;;2.10;91.10;;;;;;5062921;28;20247;-67
2022/04/01 07:22:08;;;;;;;2.30;1.50;;;2.10;90.40;;;;;;5066517;28;20308;-68
2022/04/01 07:24:35;;;;;;;2.87;2.27;;;2.10;90.20;;;;;;5068015;28;20736;-68
2022/04/01 07:27:02;;;;;;;6.30;2.13;;;2.20;90.00;;;;;;5064886;28;20653;-70
2022/04/01 07:29:29;;;;;;;3.43;1.87;;;2.20;90.10;;;;;;5061360;28;20217;-70
2022/04/01 07:34:44;;;;;;;3.73;2.00;;;2.20;90.60;;;;;;5069636;28;20204;-69
2022/04/01 07:37:12;;;;;;;2.90;1.80;;;2.10;91.10;;;;;;5070171;28;20216;-69
2022/04/01 07:39:39;;;;;;;2.50;1.73;;;2.20;91.30;;;;;;5059686;28;20659;-68
2022/04/01 07:42:07;;;;;;;2.33;1.87;;;2.20;91.60;;;;;;5069419;28;20277;-69
2022/04/01 07:44:34;;;;;;;3.07;1.87;;;2.20;92.20;;;;;;5066337;28;20292;-68
2022/04/01 07:47:02;;;;;;;4.20;1.80;;;2.20;92.80;;;;;;5072929;28;20207;-68
2022/04/01 07:49:30;;;;;;;2.70;1.67;;;2.20;93.20;;;;;;5071812;28;20247;-68
2022/04/01 07:51:57;;;;;;;5.23;2.37;;;2.20;93.80;;;;;;5067919;28;20198;-69
2022/04/01 07:54:24;;;;;;;3.13;2.40;;;2.10;94.50;;;;;;5063861;28;20542;-68
2022/04/01 07:56:51;;;;;;;3.67;1.60;;;2.10;95.20;;;;;;5068125;28;20698;-68
2022/04/01 07:59:21;;;;;;;4.73;1.60;;;2.00;95.90;;;;;;5067628;28;20206;-68
2022/04/01 08:01:48;;;;;;;6.13;1.60;;;2.00;96.60;;;;;;5073143;28;20644;-70
2022/04/01 08:04:16;;;;;;;2.10;1.77;;;2.00;97.30;;;;;;5070991;28;20211;-68
2022/04/01 08:06:43;;;;;;;2.93;2.00;;;2.00;97.70;;;;;;5072042;28;20262;-70
2022/04/01 08:09:10;;;;;;;3.67;2.30;;;2.00;98.20;;;;;;5057275;28;20225;-69
2022/04/01 08:11:37;;;;;;;2.97;2.67;;;2.00;98.70;;;;;;5062999;28;20202;-68
2022/04/01 08:14:04;;;;;;;5.30;2.27;;;2.00;99.30;;;;;;5069377;28;20224;-70
2022/04/01 08:16:33;;;;;;;4.77;2.30;;;2.00;99.90;;;;;;5057962;28;20201;-69
2022/04/01 08:19:00;;;;;;;3.17;2.17;;;2.10;99.90;;;;;;5068223;28;20241;-69
2022/04/01 08:21:28;;;;;;;2.60;2.17;;;2.20;99.90;;;;;;5061881;28;20233;-68
2022/04/01 08:23:55;;;;;;;3.10;2.17;;;2.20;99.90;;;;;;5075832;28;20213;-71
2022/04/01 08:26:22;;;;;;;2.70;2.03;;;2.20;99.90;;;;;;5062500;28;20675;-68
2022/04/01 08:28:49;;;;;;;7.13;2.47;;;2.20;99.90;;;;;;5064754;28;20230;-68
2022/04/01 08:31:16;;;;;;;3.00;2.00;;;2.30;99.90;;;;;;5064928;28;20197;-69
2022/04/01 08:33:44;;;;;;;6.63;2.20;;;2.20;99.90;;;;;;5066869;28;20325;-69
2022/04/01 08:36:11;;;;;;;6.00;2.50;;;2.20;99.90;;;;;;5070360;28;20227;-68
2022/04/01 08:38:40;;;;;;;2.77;2.33;;;2.20;99.90;;;;;;5062332;28;20206;-69
2022/04/01 08:41:07;;;;;;;5.60;2.43;;;2.20;99.90;;;;;;5065322;28;20203;-70
2022/04/01 08:43:36;;;;;;;4.23;1.97;;;2.20;99.90;;;;;;5073087;28;20201;-69
2022/04/01 08:46:06;;;;;;;3.00;1.93;;;2.30;99.90;;;;;;5063841;28;20785;-67
2022/04/01 08:48:33;;;;;;;4.40;2.57;;;2.30;99.90;;;;;;5064931;28;20228;-69
2022/04/01 08:51:01;;;;;;;5.27;2.60;;;2.30;99.90;;;;;;5058969;28;20210;-69
2022/04/01 08:53:28;;;;;;;5.47;2.57;;;2.30;99.90;;;;;;5066670;28;20499;-69
2022/04/01 08:55:57;;;;;;;5.00;3.83;;;2.30;99.90;;;;;;5059964;28;20513;-69
2022/04/01 08:58:24;;;;;;;7.10;2.10;;;2.20;99.90;;;;;;5058053;28;20226;-68
2022/04/01 09:00:52;;;;;;;2.60;1.90;;;2.20;99.90;;;;;;5062860;28;20650;-69
2022/04/01 09:03:22;;;;;;;2.50;2.30;;;2.10;99.90;;;;;;5056920;28;20632;-69
2022/04/01 09:05:52;;;;;;;5.20;2.33;;;2.10;99.90;;;;;;5052451;28;20305;-69
2022/04/01 09:08:24;;;;;;;7.10;2.30;;;2.20;99.90;;;;;;5065109;28;20225;-70
2022/04/01 09:10:58;;;;;;;5.50;2.57;;;2.20;99.90;;;;;;5072835;28;20216;-71
2022/04/01 09:13:27;;;;;;;5.80;3.13;;;2.20;99.90;;;;;;5067652;28;20224;-69
2022/04/01 09:15:55;;;;;;;4.27;3.00;;;2.20;99.90;;;;;;5062635;28;20288;-74
2022/04/01 09:18:40;;;;;;;3.73;2.50;;;2.20;99.90;;;;;;5070765;28;20269;-73
2022/04/01 09:21:09;;;;;;;4.57;3.17;;;2.10;99.90;;;;;;5067722;28;20234;-73
2022/04/01 09:23:36;;;;;;;4.70;2.47;;;2.10;99.90;;;;;;5059383;28;20209;-73
2022/04/01 09:26:06;;;;;;;5.40;2.40;;;2.10;99.90;;;;;;5070728;28;20210;-73
2022/04/01 09:28:34;;;;;;;3.47;2.50;;;2.00;99.90;;;;;;5065035;28;20213;-72
2022/04/01 09:31:06;;;;;;;6.67;2.77;;;2.00;99.90;;;;;;5057272;28;20271;-71
2022/04/01 09:33:50;;;;;;;4.93;2.70;;;2.00;99.90;;;;;;5064595;28;20204;-72
2022/04/01 09:36:19;;;;;;;3.70;2.57;;;2.10;99.90;;;;;;5073040;28;20736;-72
2022/04/01 09:39:00;;;;;;;5.73;2.80;;;2.10;99.90;;;;;;5073842;28;20198;-70
2022/04/01 09:41:35;;;;;;;4.50;2.53;;;2.10;99.90;;;;;;5071487;28;20691;-71
2022/04/01 09:44:09;;;;;;;6.13;2.63;;;2.10;99.90;;;;;;5067391;28;20198;-72
2022/04/01 09:46:40;;;;;;;7.20;2.87;;;2.10;99.90;;;;;;5066731;28;20589;-73
2022/04/01 09:49:08;;;;;;;5.47;2.70;;;2.10;99.90;;;;;;5068865;28;20245;-72
2022/04/01 09:51:35;;;;;;;4.23;2.40;;;2.10;99.90;;;;;;5066253;28;20596;-72
2022/04/01 09:54:04;;;;;;;8.60;2.70;;;2.20;99.90;;;;;;5071498;28;20229;-73
2022/04/01 09:56:44;;;;;;;6.57;3.10;;;2.10;99.90;;;;;;5058904;28;20749;-74
2022/04/01 09:59:13;;;;;;;6.70;2.93;;;2.10;99.90;;;;;;5066178;28;20710;-72
2022/04/01 10:01:41;;;;;;;5.37;2.53;;;2.20;99.90;;;;;;5068091;28;20213;-73
2022/04/01 10:04:10;;;;;;;4.63;2.60;;;2.20;99.90;;;;;;5068700;28;20207;-72
2022/04/01 10:06:39;;;;;;;5.53;2.80;;;2.20;99.90;;;;;;5069713;28;20209;-72
2022/04/01 10:09:09;;;;;;;3.60;2.43;;;2.20;99.90;;;;;;5066732;28;20229;-72
2022/04/01 10:11:37;;;;;;;5.63;3.07;;;2.10;99.90;;;;;;5070864;28;20623;-72
2022/04/01 10:14:09;;;;;;;7.47;2.83;;;2.10;99.90;;;;;;5064760;28;20202;-73
2022/04/01 10:16:36;;;;;;;6.43;3.40;;;2.10;99.90;;;;;;5061263;28;20312;-74
2022/04/01 10:19:08;;;;;;;6.03;2.77;;;2.00;99.90;;;;;;5072653;28;20730;-71
2022/04/01 10:21:36;;;;;;;6.00;3.13;;;2.10;99.90;;;;;;5074426;28;20217;-71
2022/04/01 10:24:15;;;;;;;4.77;2.40;;;2.10;99.90;;;;;;5062232;28;20206;-73
2022/04/01 10:26:53;;;;;;;4.47;3.00;;;2.10;99.90;;;;;;5060480;28;20233;-71
2022/04/01 10:29:22;;;;;;;5.03;3.20;;;2.00;99.90;;;;;;5069018;28;20651;-72
2022/04/01 10:31:54;;;;;;;6.07;2.80;;;2.00;99.90;;;;;;5065626;28;20205;-73
2022/04/01 10:34:22;;;;;;;6.07;3.13;;;2.00;99.90;;;;;;5070216;28;20205;-72
2022/04/01 10:36:57;;;;;;;5.70;3.07;;;1.90;99.90;;;;;;5072144;28;20572;-76
2022/04/01 10:39:25;;;;;;;5.10;2.90;;;2.00;99.90;;;;;;5075430;28;20193;-70
2022/04/01 10:42:10;;;;;;;4.47;2.80;;;2.00;99.90;;;;;;5069906;28;20647;-71
2022/04/01 10:44:53;;;;;;;2.73;2.40;;;2.10;99.90;;;;;;5067076;28;20253;-70
2022/04/01 10:47:22;;;;;;;4.63;2.83;;;2.20;99.90;;;;;;5060859;28;20209;-73
2022/04/01 10:52:34;;;;;;;5.67;2.77;;;2.10;99.90;;;;;;5060985;28;20192;-72
2022/04/01 10:55:18;;;;;;;4.70;2.73;;;2.20;99.90;;;;;;5058507;28;20214;-70
2022/04/01 10:57:47;;;;;;;5.10;2.30;;;2.10;99.90;;;;;;5061565;28;20551;-69
2022/04/01 11:00:19;;;;;;;5.73;3.50;;;2.10;99.90;;;;;;5060191;28;20564;-70
2022/04/01 11:02:47;;;;;;;6.10;3.57;;;2.10;99.90;;;;;;5062298;28;20205;-69
2022/04/01 11:05:27;;;;;;;2.70;2.27;;;2.20;99.90;;;;;;5078344;28;20201;-72
2022/04/01 11:08:23;;;;;;;5.00;2.17;;;2.20;99.90;;;;;;5068455;28;20201;-71
2022/04/01 11:11:07;;;;;;;6.90;2.60;;;2.20;99.90;;;;;;5046078;28;20255;-73
2022/04/01 11:13:36;;;;;;;6.13;3.83;;;2.20;99.90;;;;;;5074155;28;20206;-76
2022/04/01 11:16:22;;;;;;;5.27;2.73;;;2.10;99.90;;;;;;5068160;28;20309;-75
2022/04/01 11:19:15;;;;;;;6.50;3.13;;;2.00;99.90;;;;;;5071528;28;20228;-73
2022/04/01 11:21:43;;;;;;;4.90;3.27;;;2.00;99.90;;;;;;5071994;28;20229;-73
2022/04/01 11:24:33;;;;;;;3.60;2.97;;;2.10;99.90;;;;;;5059533;28;20206;-74
2022/04/01 11:27:07;;;;;;;5.23;3.10;;;2.10;99.90;;;;;;5070339;28;20249;-74
2022/04/01 11:29:35;;;;;;;6.73;2.83;;;2.00;99.90;;;;;;5062377;28;20252;-74
2022/04/01 11:32:08;;;;;;;4.20;2.73;;;1.90;99.90;;;;;;5063850;28;20561;-71
2022/04/01 11:34:57;;;;;;;4.53;2.87;;;1.90;99.90;;;;;;5074368;28;20197;-74
2022/04/01 11:37:25;;;;;;;6.87;3.00;;;1.90;99.90;;;;;;5072996;28;20206;-74
2022/04/01 11:39:55;;;;;;;5.07;2.67;;;1.80;99.90;;;;;;5071002;28;20201;-70
2022/04/01 11:42:23;;;;;;;4.97;3.23;;;1.80;99.90;;;;;;5063886;28;20197;-72
2022/04/01 11:44:58;;;;;;;5.30;3.47;;;1.70;99.90;;;;;;5072555;28;20324;-72
2022/04/01 11:47:34;;;;;;;5.57;3.60;;;1.70;99.90;;;;;;5068214;28;20259;-73
2022/04/01 11:50:08;;;;;;;5.30;2.90;;;1.70;99.90;;;;;;5072552;28;20223;-72
2022/04/01 11:52:39;;;;;;;4.50;2.73;;;1.70;99.90;;;;;;5075709;28;20197;-72
2022/04/01 11:55:17;;;;;;;5.37;2.80;;;1.70;99.90;;;;;;5074582;28;20221;-74
2022/04/01 11:57:44;;;;;;;5.20;2.43;;;1.70;99.90;;;;;;5068582;28;20300;-72
2022/04/01 12:00:13;;;;;;;4.53;2.83;;;1.70;99.90;;;;;;5067442;28;20202;-72
2022/04/01 12:02:42;;;;;;;4.23;2.80;;;1.70;99.90;;;;;;5062072;28;20202;-73
2022/04/01 12:05:10;;;;;;;9.63;3.03;;;1.70;99.90;;;;;;5070523;28;20626;-73
2022/04/01 12:10:24;;;;;;;4.13;2.93;;;1.80;99.90;;;;;;5072849;28;20212;-73
2022/04/01 12:12:56;;;;;;;6.60;3.37;;;1.70;99.90;;;;;;5068347;28;20220;-72
2022/04/01 12:15:34;;;;;;;3.40;2.60;;;1.80;99.90;;;;;;5072158;28;20219;-72
2022/04/01 12:18:05;;;;;;;9.20;2.83;;;1.80;99.90;;;;;;5068347;28;20201;-71
2022/04/01 12:20:33;;;;;;;4.43;2.63;;;1.80;99.90;;;;;;5065306;28;20197;-72
2022/04/01 12:23:00;;;;;;;7.47;2.70;;;1.70;99.90;;;;;;5062753;28;20292;-70
2022/04/01 12:25:29;;;;;;;5.40;3.13;;;1.70;99.90;;;;;;5070623;28;20543;-71
2022/04/01 12:27:58;;;;;;;5.63;3.35;;;1.70;99.90;;;;;;5065479;28;20481;-69
2022/04/01 12:30:33;;;;;;;6.20;3.00;;;1.70;99.90;;;;;;5064500;28;20217;-69
2022/04/01 12:33:03;;;;;;;6.73;3.07;;;1.70;99.90;;;;;;5066083;28;20227;-71
2022/04/01 12:35:30;;;;;;;9.73;3.07;;;1.60;99.90;;;;;;5071613;28;20202;-70
2022/04/01 12:38:09;;;;;;;5.50;3.47;;;1.70;99.90;;;;;;5067971;28;20206;-70
2022/04/01 12:40:50;;;;;;;4.40;3.20;;;1.80;99.90;;;;;;5067293;28;20193;-69
2022/04/01 12:43:35;;;;;;;6.33;2.90;;;1.80;99.90;;;;;;5059947;28;21702;-69
2022/04/01 12:46:04;;;;;;;6.13;2.43;;;1.90;99.90;;;;;;5061761;28;20328;-70
2022/04/01 12:48:40;;;;;;;4.80;2.97;;;2.00;99.90;;;;;;5054906;28;20205;-68
2022/04/01 12:51:07;;;;;;;7.50;3.03;;;2.10;99.90;;;;;;5059222;28;20224;-69
2022/04/01 12:53:36;;;;;;;4.87;2.90;;;2.10;99.90;;;;;;5064674;28;20209;-68
2022/04/01 12:56:19;;;;;;;4.40;2.93;;;2.10;99.90;;;;;;5066207;28;20240;-70
2022/04/01 12:58:50;;;;;;;3.77;2.97;;;2.10;99.90;;;;;;5059607;28;20197;-69
2022/04/01 13:01:22;;;;;;;6.40;3.23;;;2.20;99.90;;;;;;5069030;28;20702;-70
2022/04/01 13:03:50;;;;;;;6.57;3.95;;;2.20;99.90;;;;;;5067804;28;20469;-69
2022/04/01 13:06:18;;;;;;;5.43;3.80;;;2.20;99.90;;;;;;5072945;28;20197;-68
2022/04/01 13:08:45;;;;;;;7.40;3.43;;;2.20;99.90;;;;;;5064141;28;20552;-68
2022/04/01 13:11:16;;;;;;;7.40;4.10;;;2.10;99.90;;;;;;5066275;28;20508;-70
2022/04/01 13:13:53;;;;;;;5.40;3.00;;;2.20;99.90;;;;;;5061140;28;20327;-69
2022/04/01 13:16:20;;;;;;;7.63;3.23;;;2.10;99.90;;;;;;5058760;28;20300;-73
2022/04/01 13:18:47;;;;;;;5.87;3.30;;;2.10;99.90;;;;;;5073972;28;20235;-72
2022/04/01 13:21:17;;;;;;;5.60;3.10;;;2.10;99.90;;;;;;5070382;28;20283;-68
2022/04/01 13:23:44;;;;;;;5.80;3.43;;;2.10;99.90;;;;;;5070417;28;20220;-68
2022/04/01 13:26:16;;;;;;;8.13;3.60;;;2.10;99.90;;;;;;5063953;28;20239;-69
2022/04/01 13:28:43;;;;;;;7.83;3.20;;;2.10;99.90;;;;;;5059579;28;20659;-68